createdAt,value
2023-05-19T10:04:06.290Z,3.80
2023-05-19T10:07:00.291Z,3.40
2023-05-19T10:09:40.141Z,3.38
2023-05-19T10:12:19.066Z,3.45
2023-05-19T10:15:11.967Z,3.25
2023-05-19T10:17:53.292Z,3.03
2023-05-19T10:20:34.926Z,3.92
2023-05-19T10:23:30.641Z,3.10
2023-05-19T10:26:17.209Z,3.28
2023-05-19T10:29:06.044Z,2.90
2023-05-19T10:31:44.063Z,2.78
2023-05-19T10:35:11.637Z,2.88
2023-05-19T10:41:16.690Z,2.60
2023-05-19T10:44:23.931Z,2.65
2023-05-19T10:47:05.549Z,3.15
2023-05-19T10:49:45.231Z,2.53
2023-05-19T10:52:34.593Z,2.92
2023-05-19T10:55:41.527Z,2.75
2023-05-19T10:58:16.086Z,2.95
2023-05-19T11:01:11.912Z,2.78
2023-05-19T11:04:12.486Z,2.70
2023-05-19T11:07:01.672Z,2.53
2023-05-19T11:09:43.055Z,2.65
2023-05-19T11:12:27.034Z,2.80
2023-05-19T11:15:10.568Z,2.58
2023-05-19T11:17:56.670Z,2.65
2023-05-19T11:20:47.620Z,2.42
2023-05-19T11:23:28.535Z,2.30
2023-05-19T11:26:16.041Z,2.70
2023-05-19T11:29:08.005Z,2.50
2023-05-19T11:31:50.947Z,2.50
2023-05-19T11:34:38.926Z,2.30
2023-05-19T11:37:23.813Z,2.25
2023-05-19T11:40:07.620Z,2.33
2023-05-19T11:45:29.682Z,2.63
2023-05-19T11:48:24.114Z,2.28
2023-05-19T11:51:26.403Z,2.47
2023-05-19T11:54:00.705Z,2.70
2023-05-19T11:57:25.141Z,2.03
2023-05-19T12:00:31.162Z,2.50
2023-05-19T12:03:21.308Z,2.63
2023-05-19T12:06:17.294Z,3.20
2023-05-19T12:09:15.107Z,2.50
2023-05-19T12:12:14.971Z,2.50
2023-05-19T12:15:02.572Z,3.38
2023-05-19T12:17:46.597Z,2.17
2023-05-19T12:20:27.311Z,2.63
2023-05-19T12:23:11.606Z,2.28
2023-05-19T12:25:51.903Z,2.78
2023-05-19T12:28:52.034Z,2.20
2023-05-19T12:31:31.223Z,2.55
2023-05-19T12:34:12.018Z,2.70
2023-05-19T12:37:02.642Z,2.10
2023-05-19T12:39:44.827Z,2.40
2023-05-19T12:42:31.379Z,3.10
2023-05-19T18:51:48.968Z,11.75
2023-05-19T18:54:34.023Z,12.13
2023-05-19T18:57:26.675Z,11.68
2023-05-19T19:00:08.040Z,12.32
2023-05-19T19:02:52.317Z,13.13
2023-05-19T19:05:42.248Z,14.32
2023-05-19T19:08:36.470Z,13.57
2023-05-19T19:11:21.477Z,13.20
2023-05-19T19:14:04.717Z,12.60
2023-05-19T19:16:56.295Z,13.52
2023-05-19T19:22:53.260Z,15.20
2023-05-19T19:25:47.837Z,14.13
2023-05-19T19:28:36.583Z,14.18
2023-05-19T19:31:36.982Z,13.38
2023-05-19T19:34:21.430Z,14.48
2023-05-19T19:37:03.248Z,13.52
2023-05-19T19:39:46.774Z,13.50
2023-05-19T19:42:40.592Z,13.52
2023-05-19T19:45:12.563Z,15.10
2023-05-19T19:48:06.115Z,16.83
2023-05-19T19:53:28.989Z,14.68
2023-05-19T19:56:21.273Z,16.02
2023-05-19T19:59:17.129Z,17.58
2023-05-19T20:02:04.031Z,19.98
2023-05-19T20:04:39.495Z,19.27
2023-05-19T20:07:19.695Z,20.70
2023-05-19T20:10:01.420Z,19.85
2023-05-19T20:12:39.443Z,19.20
2023-05-19T20:15:21.876Z,22.70
2023-05-19T20:18:06.837Z,22.13
2023-05-19T20:20:52.990Z,19.67
2023-05-19T20:23:36.657Z,22.52
2023-05-19T20:26:20.133Z,21.42
2023-05-19T20:29:12.356Z,23.13
2023-05-19T20:31:58.834Z,20.92
2023-05-19T20:34:41.852Z,21.90
2023-05-19T20:37:22.213Z,22.25
2023-05-19T20:40:01.312Z,20.27
2023-05-19T20:42:49.224Z,19.55
2023-05-19T20:45:25.891Z,20.13
2023-05-19T20:48:19.502Z,20.88
2023-05-19T20:51:01.438Z,20.88
2023-05-19T20:53:49.831Z,21.05
2023-05-19T20:56:36.821Z,19.63
2023-05-19T20:59:41.184Z,20.45
2023-05-19T21:02:30.652Z,20.52
2023-05-19T21:05:13.958Z,21.13
2023-05-19T21:10:50.999Z,20.23
2023-05-19T21:13:33.980Z,20.83
2023-05-19T21:16:20.484Z,21.03
2023-05-19T21:18:52.528Z,22.50
2023-05-19T21:21:36.206Z,21.25
2023-05-19T21:24:18.337Z,19.95
2023-05-19T21:27:02.037Z,21.95
2023-05-19T21:29:45.670Z,22.08
2023-05-19T21:32:33.541Z,22.05
2023-05-19T21:35:25.671Z,21.48
2023-05-19T21:38:22.770Z,21.73
2023-05-19T21:41:06.934Z,21.67
2023-05-19T21:44:01.654Z,21.67
2023-05-19T21:46:50.436Z,20.95
2023-05-19T21:49:29.589Z,19.02
2023-05-19T21:52:06.919Z,18.95
2023-05-19T21:55:02.300Z,18.08
2023-05-19T21:57:51.256Z,18.73
2023-05-19T22:00:36.859Z,18.25
2023-05-19T22:03:18.486Z,18.83
2023-05-19T22:06:04.164Z,17.77
2023-05-19T22:08:53.064Z,18.80
2023-05-19T22:11:30.967Z,18.30
2023-05-19T22:14:11.598Z,19.80
2023-05-19T22:16:53.116Z,19.20
2023-05-19T22:19:34.868Z,20.77
2023-05-19T22:22:15.961Z,21.73
2023-05-19T22:24:59.951Z,23.55
2023-05-19T22:30:21.810Z,20.20
2023-05-19T22:35:43.709Z,21.30
2023-05-19T22:38:24.115Z,22.20
2023-05-19T22:41:04.567Z,30.73
2023-05-19T22:43:45.432Z,35.13
2023-05-19T22:46:26.625Z,35.63
2023-05-19T22:49:04.343Z,28.48
2023-05-19T22:51:59.775Z,25.77
2023-05-19T22:54:42.547Z,22.60
2023-05-19T22:57:20.457Z,22.85
2023-05-19T23:00:04.540Z,20.27
2023-05-19T23:05:28.094Z,18.95
2023-05-19T23:08:06.960Z,19.05
2023-05-19T23:10:50.236Z,18.30
2023-05-19T23:13:40.355Z,19.13
2023-05-19T23:16:34.308Z,18.00
2023-05-19T23:19:34.077Z,18.15
2023-05-19T23:22:11.948Z,17.67
2023-05-19T23:24:47.377Z,17.02
2023-05-19T23:27:25.052Z,20.83
2023-05-19T23:30:06.275Z,18.92
2023-05-19T23:33:03.825Z,19.00
2023-05-19T23:35:48.467Z,17.42
2023-05-19T23:38:29.866Z,18.67
2023-05-19T23:41:23.094Z,20.27
2023-05-19T23:44:11.759Z,17.77
2023-05-19T23:46:52.630Z,18.30
2023-05-19T23:49:43.926Z,17.48
2023-05-19T23:52:29.925Z,18.63
2023-05-19T23:55:14.631Z,18.33
2023-05-19T23:57:58.612Z,17.33
